sensor_id;sensor_type;location;lat;lon;timestamp;P1;durP1;ratioP1;P2;durP2;ratioP2
56181;SDS011;51963;46.052;14.544;2023-06-22T00:01:20;18.20;;;10.85;;
56181;SDS011;51963;46.052;14.544;2023-06-22T00:03:47;16.37;;;9.10;;
56181;SDS011;51963;46.052;14.544;2023-06-22T00:06:13;20.42;;;11.50;;
56181;SDS011;51963;46.052;14.544;2023-06-22T00:08:42;25.65;;;12.50;;
56181;SDS011;51963;46.052;14.544;2023-06-22T00:11:07;23.35;;;10.18;;
56181;SDS011;51963;46.052;14.544;2023-06-22T00:13:33;17.60;;;10.55;;
56181;SDS011;51963;46.052;14.544;2023-06-22T00:15:59;20.42;;;10.90;;
56181;SDS011;51963;46.052;14.544;2023-06-22T00:18:25;16.85;;;9.23;;
56181;SDS011;51963;46.052;14.544;2023-06-22T00:23:23;27.08;;;11.18;;
56181;SDS011;51963;46.052;14.544;2023-06-22T00:25:49;21.33;;;11.25;;
56181;SDS011;51963;46.052;14.544;2023-06-22T00:28:17;25.23;;;12.32;;
56181;SDS011;51963;46.052;14.544;2023-06-22T00:30:45;16.10;;;8.43;;
56181;SDS011;51963;46.052;14.544;2023-06-22T00:33:11;16.30;;;10.30;;
56181;SDS011;51963;46.052;14.544;2023-06-22T00:35:39;17.35;;;11.48;;
56181;SDS011;51963;46.052;14.544;2023-06-22T00:38:11;25.60;;;13.38;;
56181;SDS011;51963;46.052;14.544;2023-06-22T00:40:37;21.35;;;12.25;;
56181;SDS011;51963;46.052;14.544;2023-06-22T00:43:05;22.95;;;11.98;;
56181;SDS011;51963;46.052;14.544;2023-06-22T00:47:59;24.98;;;12.10;;
56181;SDS011;51963;46.052;14.544;2023-06-22T00:50:31;14.60;;;10.52;;
56181;SDS011;51963;46.052;14.544;2023-06-22T00:53:03;18.50;;;10.07;;
56181;SDS011;51963;46.052;14.544;2023-06-22T00:55:36;16.85;;;9.35;;
56181;SDS011;51963;46.052;14.544;2023-06-22T00:58:05;17.70;;;10.50;;
56181;SDS011;51963;46.052;14.544;2023-06-22T01:00:33;18.13;;;10.85;;
56181;SDS011;51963;46.052;14.544;2023-06-22T01:02:59;16.35;;;10.38;;
56181;SDS011;51963;46.052;14.544;2023-06-22T01:05:27;19.67;;;10.30;;
56181;SDS011;51963;46.052;14.544;2023-06-22T01:08:40;14.40;;;10.50;;
56181;SDS011;51963;46.052;14.544;2023-06-22T01:13:50;18.17;;;10.10;;
56181;SDS011;51963;46.052;14.544;2023-06-22T01:16:30;27.10;;;15.68;;
56181;SDS011;51963;46.052;14.544;2023-06-22T01:19:07;17.42;;;10.65;;
56181;SDS011;51963;46.052;14.544;2023-06-22T01:21:55;15.57;;;8.60;;
56181;SDS011;51963;46.052;14.544;2023-06-22T01:29:55;12.95;;;8.27;;
56181;SDS011;51963;46.052;14.544;2023-06-22T01:32:34;14.85;;;8.18;;
56181;SDS011;51963;46.052;14.544;2023-06-22T01:35:03;11.83;;;7.80;;
56181;SDS011;51963;46.052;14.544;2023-06-22T01:37:31;13.02;;;7.93;;
56181;SDS011;51963;46.052;14.544;2023-06-22T01:40:01;17.92;;;8.23;;
56181;SDS011;51963;46.052;14.544;2023-06-22T01:42:30;11.63;;;7.72;;
56181;SDS011;51963;46.052;14.544;2023-06-22T01:44:56;12.75;;;7.90;;
56181;SDS011;51963;46.052;14.544;2023-06-22T01:47:25;12.43;;;8.02;;
56181;SDS011;51963;46.052;14.544;2023-06-22T01:49:52;13.63;;;8.20;;
56181;SDS011;51963;46.052;14.544;2023-06-22T01:52:19;14.77;;;8.68;;
56181;SDS011;51963;46.052;14.544;2023-06-22T01:54:55;15.65;;;8.98;;
56181;SDS011;51963;46.052;14.544;2023-06-22T01:57:23;12.13;;;8.52;;
56181;SDS011;51963;46.052;14.544;2023-06-22T02:03:26;14.85;;;9.15;;
56181;SDS011;51963;46.052;14.544;2023-06-22T02:05:49;13.55;;;8.60;;
56181;SDS011;51963;46.052;14.544;2023-06-22T02:08:19;14.30;;;8.93;;
56181;SDS011;51963;46.052;14.544;2023-06-22T02:10:47;16.70;;;9.25;;
56181;SDS011;51963;46.052;14.544;2023-06-22T02:13:23;15.48;;;9.82;;
56181;SDS011;51963;46.052;14.544;2023-06-22T02:15:51;14.60;;;9.02;;
56181;SDS011;51963;46.052;14.544;2023-06-22T02:18:17;16.60;;;10.32;;
56181;SDS011;51963;46.052;14.544;2023-06-22T02:20:43;14.63;;;9.48;;
56181;SDS011;51963;46.052;14.544;2023-06-22T02:23:09;15.40;;;10.15;;
56181;SDS011;51963;46.052;14.544;2023-06-22T02:25:35;17.38;;;10.05;;
56181;SDS011;51963;46.052;14.544;2023-06-22T02:28:01;15.65;;;9.68;;
56181;SDS011;51963;46.052;14.544;2023-06-22T02:30:27;15.13;;;10.05;;
56181;SDS011;51963;46.052;14.544;2023-06-22T02:32:58;18.15;;;9.70;;
56181;SDS011;51963;46.052;14.544;2023-06-22T02:35:31;17.92;;;10.27;;
56181;SDS011;51963;46.052;14.544;2023-06-22T02:38:01;19.10;;;10.38;;
56181;SDS011;51963;46.052;14.544;2023-06-22T02:40:28;21.67;;;10.23;;
56181;SDS011;51963;46.052;14.544;2023-06-22T02:43:00;18.15;;;11.50;;
56181;SDS011;51963;46.052;14.544;2023-06-22T02:45:29;20.55;;;10.07;;
56181;SDS011;51963;46.052;14.544;2023-06-22T02:47:55;16.85;;;9.63;;
56181;SDS011;51963;46.052;14.544;2023-06-22T02:50:24;18.88;;;9.75;;
56181;SDS011;51963;46.052;14.544;2023-06-22T02:52:51;17.98;;;10.35;;
56181;SDS011;51963;46.052;14.544;2023-06-22T02:55:19;16.75;;;11.02;;
56181;SDS011;51963;46.052;14.544;2023-06-22T02:57:52;15.38;;;9.88;;
56181;SDS011;51963;46.052;14.544;2023-06-22T03:00:23;15.23;;;10.60;;
56181;SDS011;51963;46.052;14.544;2023-06-22T03:02:58;21.13;;;10.98;;
56181;SDS011;51963;46.052;14.544;2023-06-22T03:05:24;18.45;;;10.25;;
56181;SDS011;51963;46.052;14.544;2023-06-22T03:07:54;18.63;;;10.30;;
56181;SDS011;51963;46.052;14.544;2023-06-22T03:10:20;14.57;;;10.57;;
56181;SDS011;51963;46.052;14.544;2023-06-22T03:12:46;16.23;;;10.05;;
56181;SDS011;51963;46.052;14.544;2023-06-22T03:15:12;16.60;;;10.38;;
56181;SDS011;51963;46.052;14.544;2023-06-22T03:17:43;22.40;;;11.40;;
56181;SDS011;51963;46.052;14.544;2023-06-22T03:20:10;18.20;;;11.00;;
56181;SDS011;51963;46.052;14.544;2023-06-22T03:22:41;16.95;;;10.52;;
56181;SDS011;51963;46.052;14.544;2023-06-22T03:25:10;16.25;;;10.20;;
56181;SDS011;51963;46.052;14.544;2023-06-22T03:27:41;20.98;;;11.00;;
56181;SDS011;51963;46.052;14.544;2023-06-22T03:30:08;16.58;;;10.50;;
56181;SDS011;51963;46.052;14.544;2023-06-22T03:32:35;17.80;;;10.60;;
56181;SDS011;51963;46.052;14.544;2023-06-22T03:35:04;18.10;;;11.32;;
56181;SDS011;51963;46.052;14.544;2023-06-22T03:37:33;20.20;;;11.60;;
56181;SDS011;51963;46.052;14.544;2023-06-22T03:39:59;18.02;;;10.40;;
56181;SDS011;51963;46.052;14.544;2023-06-22T03:42:29;18.75;;;10.73;;
56181;SDS011;51963;46.052;14.544;2023-06-22T03:44:55;14.75;;;10.95;;
56181;SDS011;51963;46.052;14.544;2023-06-22T03:47:20;17.42;;;11.07;;
56181;SDS011;51963;46.052;14.544;2023-06-22T03:49:46;17.63;;;10.23;;
56181;SDS011;51963;46.052;14.544;2023-06-22T03:52:12;15.88;;;10.60;;
56181;SDS011;51963;46.052;14.544;2023-06-22T03:54:38;16.58;;;9.38;;
56181;SDS011;51963;46.052;14.544;2023-06-22T03:57:04;15.90;;;10.40;;
56181;SDS011;51963;46.052;14.544;2023-06-22T03:59:33;18.10;;;10.45;;
56181;SDS011;51963;46.052;14.544;2023-06-22T04:01:59;18.23;;;10.80;;
56181;SDS011;51963;46.052;14.544;2023-06-22T04:04:27;16.20;;;10.80;;
56181;SDS011;51963;46.052;14.544;2023-06-22T04:06:53;15.32;;;9.85;;
56181;SDS011;51963;46.052;14.544;2023-06-22T04:09:21;17.23;;;10.68;;
56181;SDS011;51963;46.052;14.544;2023-06-22T04:11:47;15.73;;;10.43;;
56181;SDS011;51963;46.052;14.544;2023-06-22T04:14:16;17.42;;;10.85;;
56181;SDS011;51963;46.052;14.544;2023-06-22T04:16:42;14.60;;;9.77;;
56181;SDS011;51963;46.052;14.544;2023-06-22T04:19:09;18.23;;;10.25;;
56181;SDS011;51963;46.052;14.544;2023-06-22T04:21:45;16.52;;;10.32;;
56181;SDS011;51963;46.052;14.544;2023-06-22T04:24:11;16.77;;;10.45;;
56181;SDS011;51963;46.052;14.544;2023-06-22T04:26:39;17.00;;;10.80;;
56181;SDS011;51963;46.052;14.544;2023-06-22T04:29:07;19.27;;;11.60;;
56181;SDS011;51963;46.052;14.544;2023-06-22T04:31:36;20.20;;;12.53;;
56181;SDS011;51963;46.052;14.544;2023-06-22T04:34:06;16.63;;;11.63;;
56181;SDS011;51963;46.052;14.544;2023-06-22T04:36:36;20.08;;;11.75;;
56181;SDS011;51963;46.052;14.544;2023-06-22T04:39:04;19.13;;;12.15;;
56181;SDS011;51963;46.052;14.544;2023-06-22T04:41:31;18.48;;;12.00;;
56181;SDS011;51963;46.052;14.544;2023-06-22T04:44:10;17.88;;;11.63;;
56181;SDS011;51963;46.052;14.544;2023-06-22T04:46:53;21.17;;;11.68;;
56181;SDS011;51963;46.052;14.544;2023-06-22T04:49:28;18.02;;;12.70;;
56181;SDS011;51963;46.052;14.544;2023-06-22T04:52:05;26.20;;;14.00;;
56181;SDS011;51963;46.052;14.544;2023-06-22T04:54:35;25.65;;;12.27;;
56181;SDS011;51963;46.052;14.544;2023-06-22T04:57:04;22.33;;;12.50;;
56181;SDS011;51963;46.052;14.544;2023-06-22T04:59:35;20.13;;;12.13;;
56181;SDS011;51963;46.052;14.544;2023-06-22T05:02:04;22.23;;;11.45;;
56181;SDS011;51963;46.052;14.544;2023-06-22T05:04:31;21.58;;;11.73;;
56181;SDS011;51963;46.052;14.544;2023-06-22T05:06:57;23.77;;;12.38;;
56181;SDS011;51963;46.052;14.544;2023-06-22T05:09:25;23.85;;;12.50;;
56181;SDS011;51963;46.052;14.544;2023-06-22T05:11:51;25.85;;;12.18;;
56181;SDS011;51963;46.052;14.544;2023-06-22T05:14:18;19.30;;;11.75;;
56181;SDS011;51963;46.052;14.544;2023-06-22T05:16:44;22.25;;;13.63;;
56181;SDS011;51963;46.052;14.544;2023-06-22T05:19:11;25.73;;;13.13;;
56181;SDS011;51963;46.052;14.544;2023-06-22T05:21:40;20.52;;;12.45;;
56181;SDS011;51963;46.052;14.544;2023-06-22T05:24:06;21.23;;;13.20;;
56181;SDS011;51963;46.052;14.544;2023-06-22T05:26:33;19.70;;;11.43;;
56181;SDS011;51963;46.052;14.544;2023-06-22T05:29:00;21.70;;;12.68;;
56181;SDS011;51963;46.052;14.544;2023-06-22T05:31:30;28.00;;;12.85;;
56181;SDS011;51963;46.052;14.544;2023-06-22T05:33:56;24.52;;;13.00;;
56181;SDS011;51963;46.052;14.544;2023-06-22T05:36:28;25.67;;;12.63;;
56181;SDS011;51963;46.052;14.544;2023-06-22T05:38:56;19.08;;;11.65;;
56181;SDS011;51963;46.052;14.544;2023-06-22T05:41:21;28.98;;;12.90;;
56181;SDS011;51963;46.052;14.544;2023-06-22T05:43:49;28.13;;;13.93;;
56181;SDS011;51963;46.052;14.544;2023-06-22T05:46:15;23.15;;;12.73;;
56181;SDS011;51963;46.052;14.544;2023-06-22T05:48:42;24.88;;;12.88;;
56181;SDS011;51963;46.052;14.544;2023-06-22T05:51:07;22.98;;;12.93;;
56181;SDS011;51963;46.052;14.544;2023-06-22T05:53:33;24.60;;;12.52;;
56181;SDS011;51963;46.052;14.544;2023-06-22T05:56:01;22.20;;;12.82;;
56181;SDS011;51963;46.052;14.544;2023-06-22T05:58:27;28.77;;;14.57;;
56181;SDS011;51963;46.052;14.544;2023-06-22T06:00:53;24.40;;;12.48;;
56181;SDS011;51963;46.052;14.544;2023-06-22T06:03:19;23.35;;;11.93;;
56181;SDS011;51963;46.052;14.544;2023-06-22T06:05:44;20.27;;;11.30;;
56181;SDS011;51963;46.052;14.544;2023-06-22T06:08:11;20.00;;;11.18;;
56181;SDS011;51963;46.052;14.544;2023-06-22T06:10:37;20.08;;;11.90;;
56181;SDS011;51963;46.052;14.544;2023-06-22T06:13:05;17.92;;;10.95;;
56181;SDS011;51963;46.052;14.544;2023-06-22T06:15:35;19.83;;;11.43;;
56181;SDS011;51963;46.052;14.544;2023-06-22T06:18:01;21.33;;;11.40;;
56181;SDS011;51963;46.052;14.544;2023-06-22T06:20:30;23.25;;;12.52;;
56181;SDS011;51963;46.052;14.544;2023-06-22T06:22:56;25.33;;;14.52;;
56181;SDS011;51963;46.052;14.544;2023-06-22T06:25:31;29.83;;;14.20;;
56181;SDS011;51963;46.052;14.544;2023-06-22T06:27:57;24.55;;;13.68;;
56181;SDS011;51963;46.052;14.544;2023-06-22T06:30:27;31.92;;;14.43;;
56181;SDS011;51963;46.052;14.544;2023-06-22T06:32:53;28.67;;;14.35;;
56181;SDS011;51963;46.052;14.544;2023-06-22T06:35:19;31.02;;;14.98;;
56181;SDS011;51963;46.052;14.544;2023-06-22T06:37:48;24.00;;;14.00;;
56181;SDS011;51963;46.052;14.544;2023-06-22T06:40:17;25.58;;;14.52;;
56181;SDS011;51963;46.052;14.544;2023-06-22T06:42:44;38.63;;;15.03;;
56181;SDS011;51963;46.052;14.544;2023-06-22T06:45:17;23.85;;;14.32;;
56181;SDS011;51963;46.052;14.544;2023-06-22T06:47:45;25.30;;;13.73;;
56181;SDS011;51963;46.052;14.544;2023-06-22T06:50:11;30.42;;;14.18;;
56181;SDS011;51963;46.052;14.544;2023-06-22T06:52:40;25.10;;;13.80;;
56181;SDS011;51963;46.052;14.544;2023-06-22T06:55:07;25.67;;;13.68;;
56181;SDS011;51963;46.052;14.544;2023-06-22T06:57:43;23.95;;;13.35;;
56181;SDS011;51963;46.052;14.544;2023-06-22T07:00:09;25.75;;;12.35;;
56181;SDS011;51963;46.052;14.544;2023-06-22T07:02:39;26.30;;;12.30;;
56181;SDS011;51963;46.052;14.544;2023-06-22T07:05:06;25.20;;;13.27;;
56181;SDS011;51963;46.052;14.544;2023-06-22T07:07:32;22.20;;;13.13;;
56181;SDS011;51963;46.052;14.544;2023-06-22T07:09:58;28.65;;;13.15;;
56181;SDS011;51963;46.052;14.544;2023-06-22T07:14:56;21.95;;;11.55;;
56181;SDS011;51963;46.052;14.544;2023-06-22T07:17:27;31.90;;;12.65;;
56181;SDS011;51963;46.052;14.544;2023-06-22T07:19:52;25.25;;;12.63;;
56181;SDS011;51963;46.052;14.544;2023-06-22T07:22:18;28.30;;;12.15;;
56181;SDS011;51963;46.052;14.544;2023-06-22T07:24:44;27.35;;;12.55;;
56181;SDS011;51963;46.052;14.544;2023-06-22T07:27:09;22.52;;;12.48;;
56181;SDS011;51963;46.052;14.544;2023-06-22T07:29:37;23.77;;;12.48;;
56181;SDS011;51963;46.052;14.544;2023-06-22T07:32:06;25.55;;;11.80;;
56181;SDS011;51963;46.052;14.544;2023-06-22T07:34:31;31.02;;;12.70;;
56181;SDS011;51963;46.052;14.544;2023-06-22T07:36:58;21.83;;;11.95;;
56181;SDS011;51963;46.052;14.544;2023-06-22T07:39:25;26.00;;;12.60;;
56181;SDS011;51963;46.052;14.544;2023-06-22T07:41:54;24.02;;;12.35;;
56181;SDS011;51963;46.052;14.544;2023-06-22T07:44:19;24.55;;;11.93;;
56181;SDS011;51963;46.052;14.544;2023-06-22T07:46:45;24.60;;;11.95;;
56181;SDS011;51963;46.052;14.544;2023-06-22T07:49:11;20.73;;;11.00;;
56181;SDS011;51963;46.052;14.544;2023-06-22T07:51:37;16.45;;;11.32;;
56181;SDS011;51963;46.052;14.544;2023-06-22T07:54:02;18.40;;;11.13;;
56181;SDS011;51963;46.052;14.544;2023-06-22T07:56:28;24.75;;;11.13;;
56181;SDS011;51963;46.052;14.544;2023-06-22T07:58:54;22.27;;;12.60;;
56181;SDS011;51963;46.052;14.544;2023-06-22T08:01:20;25.23;;;12.20;;
56181;SDS011;51963;46.052;14.544;2023-06-22T08:03:48;25.75;;;12.18;;
56181;SDS011;51963;46.052;14.544;2023-06-22T08:06:17;22.35;;;10.45;;
56181;SDS011;51963;46.052;14.544;2023-06-22T08:08:45;24.50;;;11.20;;
56181;SDS011;51963;46.052;14.544;2023-06-22T08:11:13;24.13;;;11.15;;
56181;SDS011;51963;46.052;14.544;2023-06-22T08:13:38;19.50;;;10.48;;
56181;SDS011;51963;46.052;14.544;2023-06-22T08:16:04;23.48;;;11.20;;
56181;SDS011;51963;46.052;14.544;2023-06-22T08:18:30;28.92;;;11.93;;
56181;SDS011;51963;46.052;14.544;2023-06-22T08:20:56;25.85;;;10.90;;
56181;SDS011;51963;46.052;14.544;2023-06-22T08:23:21;22.23;;;11.00;;
56181;SDS011;51963;46.052;14.544;2023-06-22T08:25:50;23.63;;;10.98;;
56181;SDS011;51963;46.052;14.544;2023-06-22T08:28:16;16.40;;;10.77;;
56181;SDS011;51963;46.052;14.544;2023-06-22T08:30:42;14.18;;;10.15;;
56181;SDS011;51963;46.052;14.544;2023-06-22T08:33:07;17.70;;;10.50;;
56181;SDS011;51963;46.052;14.544;2023-06-22T08:35:36;21.73;;;10.70;;
56181;SDS011;51963;46.052;14.544;2023-06-22T08:38:04;20.00;;;10.88;;
56181;SDS011;51963;46.052;14.544;2023-06-22T08:40:35;19.48;;;9.93;;
56181;SDS011;51963;46.052;14.544;2023-06-22T08:43:03;15.43;;;9.43;;
56181;SDS011;51963;46.052;14.544;2023-06-22T08:45:29;14.93;;;9.70;;
56181;SDS011;51963;46.052;14.544;2023-06-22T08:47:59;13.65;;;9.32;;
56181;SDS011;51963;46.052;14.544;2023-06-22T08:50:25;16.73;;;9.80;;
56181;SDS011;51963;46.052;14.544;2023-06-22T08:52:51;14.50;;;9.15;;
56181;SDS011;51963;46.052;14.544;2023-06-22T08:55:19;19.98;;;9.40;;
56181;SDS011;51963;46.052;14.544;2023-06-22T08:57:45;21.08;;;9.38;;
56181;SDS011;51963;46.052;14.544;2023-06-22T09:00:13;18.17;;;9.48;;
56181;SDS011;51963;46.052;14.544;2023-06-22T09:02:43;15.45;;;9.27;;
56181;SDS011;51963;46.052;14.544;2023-06-22T09:05:09;15.82;;;9.38;;
56181;SDS011;51963;46.052;14.544;2023-06-22T09:07:35;19.52;;;9.38;;
56181;SDS011;51963;46.052;14.544;2023-06-22T09:10:01;15.27;;;9.30;;
56181;SDS011;51963;46.052;14.544;2023-06-22T09:12:30;14.63;;;9.02;;
56181;SDS011;51963;46.052;14.544;2023-06-22T09:15:02;15.25;;;9.10;;
56181;SDS011;51963;46.052;14.544;2023-06-22T09:17:30;18.63;;;9.77;;
56181;SDS011;51963;46.052;14.544;2023-06-22T09:19:56;13.07;;;8.88;;
56181;SDS011;51963;46.052;14.544;2023-06-22T09:22:21;16.15;;;9.13;;
56181;SDS011;51963;46.052;14.544;2023-06-22T09:24:47;15.02;;;9.55;;
56181;SDS011;51963;46.052;14.544;2023-06-22T09:27:15;15.82;;;9.68;;
56181;SDS011;51963;46.052;14.544;2023-06-22T09:29:41;14.65;;;9.55;;
56181;SDS011;51963;46.052;14.544;2023-06-22T09:32:07;25.25;;;9.63;;
56181;SDS011;51963;46.052;14.544;2023-06-22T09:34:35;18.88;;;9.50;;
56181;SDS011;51963;46.052;14.544;2023-06-22T09:37:01;16.38;;;8.85;;
56181;SDS011;51963;46.052;14.544;2023-06-22T09:39:27;18.67;;;8.90;;
56181;SDS011;51963;46.052;14.544;2023-06-22T09:41:53;17.48;;;9.02;;
56181;SDS011;51963;46.052;14.544;2023-06-22T09:44:18;10.65;;;8.35;;
56181;SDS011;51963;46.052;14.544;2023-06-22T09:46:44;18.85;;;9.43;;
56181;SDS011;51963;46.052;14.544;2023-06-22T09:49:10;15.52;;;9.45;;
56181;SDS011;51963;46.052;14.544;2023-06-22T09:51:35;19.85;;;10.85;;
56181;SDS011;51963;46.052;14.544;2023-06-22T09:54:01;19.60;;;9.48;;
56181;SDS011;51963;46.052;14.544;2023-06-22T09:56:27;23.08;;;10.88;;
56181;SDS011;51963;46.052;14.544;2023-06-22T09:58:54;17.52;;;10.68;;
56181;SDS011;51963;46.052;14.544;2023-06-22T10:01:20;23.77;;;11.13;;
56181;SDS011;51963;46.052;14.544;2023-06-22T10:03:53;22.75;;;10.98;;
56181;SDS011;51963;46.052;14.544;2023-06-22T10:06:22;24.30;;;10.23;;
56181;SDS011;51963;46.052;14.544;2023-06-22T10:08:49;17.60;;;11.07;;
56181;SDS011;51963;46.052;14.544;2023-06-22T10:11:15;17.42;;;10.23;;
56181;SDS011;51963;46.052;14.544;2023-06-22T10:13:41;19.88;;;10.95;;
56181;SDS011;51963;46.052;14.544;2023-06-22T10:16:06;19.90;;;10.45;;
56181;SDS011;51963;46.052;14.544;2023-06-22T10:18:32;16.45;;;11.02;;
56181;SDS011;51963;46.052;14.544;2023-06-22T10:20:58;21.83;;;11.23;;
56181;SDS011;51963;46.052;14.544;2023-06-22T10:23:27;24.48;;;11.30;;
56181;SDS011;51963;46.052;14.544;2023-06-22T10:25:53;24.20;;;10.65;;
56181;SDS011;51963;46.052;14.544;2023-06-22T10:28:23;16.02;;;9.75;;
56181;SDS011;51963;46.052;14.544;2023-06-22T10:30:49;16.02;;;10.20;;
56181;SDS011;51963;46.052;14.544;2023-06-22T10:33:14;17.50;;;10.10;;
56181;SDS011;51963;46.052;14.544;2023-06-22T10:35:40;24.48;;;10.55;;
56181;SDS011;51963;46.052;14.544;2023-06-22T10:38:06;22.90;;;10.50;;
56181;SDS011;51963;46.052;14.544;2023-06-22T10:40:34;15.02;;;10.45;;
56181;SDS011;51963;46.052;14.544;2023-06-22T10:43:03;23.92;;;11.00;;
56181;SDS011;51963;46.052;14.544;2023-06-22T10:45:29;19.80;;;9.90;;
56181;SDS011;51963;46.052;14.544;2023-06-22T10:47:55;19.73;;;9.88;;
56181;SDS011;51963;46.052;14.544;2023-06-22T10:50:26;19.90;;;10.32;;
56181;SDS011;51963;46.052;14.544;2023-06-22T10:52:53;15.90;;;10.75;;
56181;SDS011;51963;46.052;14.544;2023-06-22T10:57:45;22.03;;;10.97;;
56181;SDS011;51963;46.052;14.544;2023-06-22T11:00:12;16.27;;;10.50;;
56181;SDS011;51963;46.052;14.544;2023-06-22T11:02:39;19.88;;;10.40;;
56181;SDS011;51963;46.052;14.544;2023-06-22T11:05:05;20.40;;;10.93;;
56181;SDS011;51963;46.052;14.544;2023-06-22T11:07:31;19.63;;;10.10;;
56181;SDS011;51963;46.052;14.544;2023-06-22T11:10:00;16.33;;;10.07;;
56181;SDS011;51963;46.052;14.544;2023-06-22T11:12:25;25.40;;;10.73;;
56181;SDS011;51963;46.052;14.544;2023-06-22T11:14:51;16.33;;;10.00;;
56181;SDS011;51963;46.052;14.544;2023-06-22T11:17:17;15.40;;;10.37;;
56181;SDS011;51963;46.052;14.544;2023-06-22T11:19:44;22.20;;;10.47;;
56181;SDS011;51963;46.052;14.544;2023-06-22T11:24:35;18.83;;;10.10;;
56181;SDS011;51963;46.052;14.544;2023-06-22T11:27:01;17.13;;;9.85;;
56181;SDS011;51963;46.052;14.544;2023-06-22T11:29:27;20.87;;;10.57;;
56181;SDS011;51963;46.052;14.544;2023-06-22T11:31:53;18.37;;;10.40;;
56181;SDS011;51963;46.052;14.544;2023-06-22T11:34:19;18.83;;;10.03;;
56181;SDS011;51963;46.052;14.544;2023-06-22T11:36:45;17.50;;;10.13;;
56181;SDS011;51963;46.052;14.544;2023-06-22T11:39:11;22.40;;;10.07;;
56181;SDS011;51963;46.052;14.544;2023-06-22T11:41:39;16.65;;;10.05;;
56181;SDS011;51963;46.052;14.544;2023-06-22T11:44:05;19.10;;;10.47;;
56181;SDS011;51963;46.052;14.544;2023-06-22T11:46:30;18.47;;;10.43;;
56181;SDS011;51963;46.052;14.544;2023-06-22T11:48:57;17.70;;;10.45;;
56181;SDS011;51963;46.052;14.544;2023-06-22T11:51:26;20.70;;;10.07;;
56181;SDS011;51963;46.052;14.544;2023-06-22T11:53:58;13.32;;;9.95;;
56181;SDS011;51963;46.052;14.544;2023-06-22T11:56:26;15.35;;;9.88;;
56181;SDS011;51963;46.052;14.544;2023-06-22T11:58:53;21.15;;;10.40;;
56181;SDS011;51963;46.052;14.544;2023-06-22T12:01:19;13.45;;;9.95;;
56181;SDS011;51963;46.052;14.544;2023-06-22T12:03:45;17.43;;;9.83;;
56181;SDS011;51963;46.052;14.544;2023-06-22T12:06:11;21.40;;;10.48;;
56181;SDS011;51963;46.052;14.544;2023-06-22T12:08:37;16.10;;;9.40;;
56181;SDS011;51963;46.052;14.544;2023-06-22T12:11:03;16.75;;;9.95;;
56181;SDS011;51963;46.052;14.544;2023-06-22T12:13:28;22.30;;;9.53;;
56181;SDS011;51963;46.052;14.544;2023-06-22T12:15:54;21.03;;;9.57;;
56181;SDS011;51963;46.052;14.544;2023-06-22T12:18:25;20.60;;;9.77;;
56181;SDS011;51963;46.052;14.544;2023-06-22T12:20:51;16.67;;;9.48;;
56181;SDS011;51963;46.052;14.544;2023-06-22T12:23:20;16.45;;;8.50;;
56181;SDS011;51963;46.052;14.544;2023-06-22T12:25:48;15.00;;;9.45;;
56181;SDS011;51963;46.052;14.544;2023-06-22T12:28:18;17.10;;;9.07;;
56181;SDS011;51963;46.052;14.544;2023-06-22T12:30:46;18.73;;;9.10;;
56181;SDS011;51963;46.052;14.544;2023-06-22T12:33:13;15.18;;;9.00;;
56181;SDS011;51963;46.052;14.544;2023-06-22T12:35:41;13.45;;;7.60;;
56181;SDS011;51963;46.052;14.544;2023-06-22T12:38:07;16.92;;;8.10;;
56181;SDS011;51963;46.052;14.544;2023-06-22T12:40:34;17.27;;;8.95;;
56181;SDS011;51963;46.052;14.544;2023-06-22T12:43:03;16.35;;;8.55;;
56181;SDS011;51963;46.052;14.544;2023-06-22T12:45:28;15.77;;;8.43;;
56181;SDS011;51963;46.052;14.544;2023-06-22T12:47:57;17.23;;;7.97;;
56181;SDS011;51963;46.052;14.544;2023-06-22T12:50:25;21.55;;;8.55;;
56181;SDS011;51963;46.052;14.544;2023-06-22T12:52:51;16.25;;;7.95;;
56181;SDS011;51963;46.052;14.544;2023-06-22T12:55:17;18.67;;;8.97;;
56181;SDS011;51963;46.052;14.544;2023-06-22T12:57:42;17.13;;;8.63;;
56181;SDS011;51963;46.052;14.544;2023-06-22T13:00:08;18.73;;;9.53;;
56181;SDS011;51963;46.052;14.544;2023-06-22T13:02:35;14.55;;;8.98;;
56181;SDS011;51963;46.052;14.544;2023-06-22T13:05:02;20.85;;;8.93;;
56181;SDS011;51963;46.052;14.544;2023-06-22T13:07:32;19.40;;;8.93;;
56181;SDS011;51963;46.052;14.544;2023-06-22T13:09:58;17.88;;;9.25;;
56181;SDS011;51963;46.052;14.544;2023-06-22T13:12:24;20.37;;;8.90;;
56181;SDS011;51963;46.052;14.544;2023-06-22T13:14:55;16.63;;;9.10;;
56181;SDS011;51963;46.052;14.544;2023-06-22T13:17:21;18.85;;;8.75;;
56181;SDS011;51963;46.052;14.544;2023-06-22T13:19:47;12.55;;;8.90;;
56181;SDS011;51963;46.052;14.544;2023-06-22T13:22:29;18.70;;;8.67;;
56181;SDS011;51963;46.052;14.544;2023-06-22T13:24:56;17.45;;;8.98;;
56181;SDS011;51963;46.052;14.544;2023-06-22T13:32:14;17.83;;;9.45;;
56181;SDS011;51963;46.052;14.544;2023-06-22T13:34:39;16.17;;;9.03;;
56181;SDS011;51963;46.052;14.544;2023-06-22T13:37:05;21.07;;;11.07;;
56181;SDS011;51963;46.052;14.544;2023-06-22T13:39:31;18.80;;;9.87;;
56181;SDS011;51963;46.052;14.544;2023-06-22T13:41:57;18.43;;;9.73;;
56181;SDS011;51963;46.052;14.544;2023-06-22T13:44:23;20.25;;;10.43;;
56181;SDS011;51963;46.052;14.544;2023-06-22T13:46:55;17.02;;;9.70;;
56181;SDS011;51963;46.052;14.544;2023-06-22T13:49:27;19.92;;;9.98;;
56181;SDS011;51963;46.052;14.544;2023-06-22T13:51:53;16.67;;;9.57;;
56181;SDS011;51963;46.052;14.544;2023-06-22T13:54:19;14.60;;;9.90;;
56181;SDS011;51963;46.052;14.544;2023-06-22T13:56:45;22.00;;;10.47;;
56181;SDS011;51963;46.052;14.544;2023-06-22T13:59:10;20.90;;;10.50;;
56181;SDS011;51963;46.052;14.544;2023-06-22T14:01:36;22.00;;;10.93;;
56181;SDS011;51963;46.052;14.544;2023-06-22T14:04:06;20.98;;;11.40;;
56181;SDS011;51963;46.052;14.544;2023-06-22T14:06:34;16.67;;;11.05;;
56181;SDS011;51963;46.052;14.544;2023-06-22T14:09:00;18.50;;;10.80;;
56181;SDS011;51963;46.052;14.544;2023-06-22T14:11:25;16.77;;;10.63;;
56181;SDS011;51963;46.052;14.544;2023-06-22T14:13:51;19.53;;;11.63;;
56181;SDS011;51963;46.052;14.544;2023-06-22T14:16:21;17.30;;;10.47;;
56181;SDS011;51963;46.052;14.544;2023-06-22T14:18:49;21.40;;;12.25;;
56181;SDS011;51963;46.052;14.544;2023-06-22T14:21:14;18.80;;;11.70;;
56181;SDS011;51963;46.052;14.544;2023-06-22T14:23:40;16.80;;;11.90;;
56181;SDS011;51963;46.052;14.544;2023-06-22T14:26:06;21.17;;;12.77;;
56181;SDS011;51963;46.052;14.544;2023-06-22T14:28:34;22.33;;;12.40;;
56181;SDS011;51963;46.052;14.544;2023-06-22T14:31:00;20.15;;;12.68;;
56181;SDS011;51963;46.052;14.544;2023-06-22T14:33:29;26.45;;;12.13;;
56181;SDS011;51963;46.052;14.544;2023-06-22T14:35:55;19.80;;;12.40;;
56181;SDS011;51963;46.052;14.544;2023-06-22T14:38:20;28.30;;;12.37;;
56181;SDS011;51963;46.052;14.544;2023-06-22T14:40:46;16.57;;;11.63;;
56181;SDS011;51963;46.052;14.544;2023-06-22T14:43:12;22.50;;;12.87;;
56181;SDS011;51963;46.052;14.544;2023-06-22T14:45:45;19.98;;;11.00;;